Terminal Aerodrome Forecast
Issued by NWS Buffalo, NY

Home | Current Version | Previous Version | Text Only | Print | Product List | Glossary On
Versions: 1 2 3 4 5 6 7 8 9 10 11 12 13 14 15 16 17 18 19 20 21 22 23 24 25 26 27 28 29 30 31 32 33
000
FTUS41 KBUF 021700
TAFROC
TAF
KROC 021733Z 0218/0318 18004KT P6SM SCT025 BKN250
     FM022200 11006KT P6SM BKN080
     FM022300 11006KT P6SM BKN200
     FM030300 16006KT P6SM FEW250
     FM031200 16010KT P6SM SCT250
     FM031700 17018KT P6SM FEW250=

USA.gov is the U.S. government's official web portal to all federal, state and local government web resources and services.